sensor_id;sensor_type;location;lat;lon;timestamp;pressure;altitude;pressure_sealevel;temperature;humidity
67434;BME280;54305;47.950;6.572;2023-04-20T00:00:13;94053.38;;;6.92;100.00
67434;BME280;54305;47.950;6.572;2023-04-20T00:02:39;94045.00;;;6.81;100.00
67434;BME280;54305;47.950;6.572;2023-04-20T00:05:06;94045.28;;;6.78;100.00
67434;BME280;54305;47.950;6.572;2023-04-20T00:07:31;94038.47;;;6.77;100.00
67434;BME280;54305;47.950;6.572;2023-04-20T00:09:57;94033.88;;;6.71;100.00
67434;BME280;54305;47.950;6.572;2023-04-20T00:12:22;94023.53;;;6.71;100.00
67434;BME280;54305;47.950;6.572;2023-04-20T00:14:47;94022.94;;;6.77;100.00
67434;BME280;54305;47.950;6.572;2023-04-20T00:17:13;94016.44;;;6.73;100.00
67434;BME280;54305;47.950;6.572;2023-04-20T00:19:38;94027.66;;;6.64;100.00
67434;BME280;54305;47.950;6.572;2023-04-20T00:22:03;94020.94;;;6.53;100.00
67434;BME280;54305;47.950;6.572;2023-04-20T00:24:29;94023.66;;;6.52;100.00
67434;BME280;54305;47.950;6.572;2023-04-20T00:26:54;94020.38;;;6.50;100.00
67434;BME280;54305;47.950;6.572;2023-04-20T00:29:19;94013.03;;;6.55;100.00
67434;BME280;54305;47.950;6.572;2023-04-20T00:31:45;94004.34;;;6.46;100.00
67434;BME280;54305;47.950;6.572;2023-04-20T00:34:10;94008.72;;;6.46;100.00
67434;BME280;54305;47.950;6.572;2023-04-20T00:36:35;94009.66;;;6.45;100.00
67434;BME280;54305;47.950;6.572;2023-04-20T00:39:00;94006.41;;;6.43;100.00
67434;BME280;54305;47.950;6.572;2023-04-20T00:41:26;94007.38;;;6.42;100.00
67434;BME280;54305;47.950;6.572;2023-04-20T00:43:52;94005.38;;;6.36;100.00
67434;BME280;54305;47.950;6.572;2023-04-20T00:46:17;94005.25;;;6.28;100.00
67434;BME280;54305;47.950;6.572;2023-04-20T00:48:43;94001.38;;;6.14;100.00
67434;BME280;54305;47.950;6.572;2023-04-20T00:51:08;94012.53;;;6.15;100.00
67434;BME280;54305;47.950;6.572;2023-04-20T00:53:34;94008.97;;;6.16;100.00
67434;BME280;54305;47.950;6.572;2023-04-20T00:55:59;94001.53;;;6.13;100.00
67434;BME280;54305;47.950;6.572;2023-04-20T00:58:24;93998.56;;;6.08;100.00
67434;BME280;54305;47.950;6.572;2023-04-20T01:00:50;93996.94;;;6.07;100.00
67434;BME280;54305;47.950;6.572;2023-04-20T01:03:15;93994.88;;;6.10;100.00
67434;BME280;54305;47.950;6.572;2023-04-20T01:05:40;93988.47;;;6.14;100.00
67434;BME280;54305;47.950;6.572;2023-04-20T01:08:06;93989.84;;;6.09;100.00
67434;BME280;54305;47.950;6.572;2023-04-20T01:10:31;93990.13;;;6.06;100.00
67434;BME280;54305;47.950;6.572;2023-04-20T01:12:56;93983.44;;;6.13;100.00
67434;BME280;54305;47.950;6.572;2023-04-20T01:15:22;93979.22;;;6.12;100.00
67434;BME280;54305;47.950;6.572;2023-04-20T01:17:47;93977.16;;;6.15;100.00
67434;BME280;54305;47.950;6.572;2023-04-20T01:20:13;93970.50;;;6.13;100.00
67434;BME280;54305;47.950;6.572;2023-04-20T01:22:45;93966.97;;;6.14;100.00
67434;BME280;54305;47.950;6.572;2023-04-20T01:25:11;93963.34;;;6.07;100.00
67434;BME280;54305;47.950;6.572;2023-04-20T01:27:36;93961.28;;;6.01;100.00
67434;BME280;54305;47.950;6.572;2023-04-20T01:30:01;93955.59;;;6.07;100.00
67434;BME280;54305;47.950;6.572;2023-04-20T01:32:26;93957.63;;;6.03;100.00
67434;BME280;54305;47.950;6.572;2023-04-20T01:34:51;93959.41;;;6.03;100.00
67434;BME280;54305;47.950;6.572;2023-04-20T01:37:17;93956.13;;;6.01;100.00
67434;BME280;54305;47.950;6.572;2023-04-20T01:39:42;93954.78;;;5.97;100.00
67434;BME280;54305;47.950;6.572;2023-04-20T01:42:09;93954.56;;;5.90;100.00
67434;BME280;54305;47.950;6.572;2023-04-20T01:44:35;93952.13;;;5.89;100.00
67434;BME280;54305;47.950;6.572;2023-04-20T01:47:00;93947.53;;;5.83;100.00
67434;BME280;54305;47.950;6.572;2023-04-20T01:49:25;93948.31;;;5.93;100.00
67434;BME280;54305;47.950;6.572;2023-04-20T01:51:50;93940.44;;;5.85;100.00
67434;BME280;54305;47.950;6.572;2023-04-20T01:54:16;93941.78;;;5.79;100.00
67434;BME280;54305;47.950;6.572;2023-04-20T01:56:41;93939.38;;;5.78;100.00
67434;BME280;54305;47.950;6.572;2023-04-20T01:59:06;93940.44;;;5.85;100.00
67434;BME280;54305;47.950;6.572;2023-04-20T02:01:31;93933.13;;;5.80;100.00
67434;BME280;54305;47.950;6.572;2023-04-20T02:03:57;93927.38;;;5.77;100.00
67434;BME280;54305;47.950;6.572;2023-04-20T02:06:22;93927.09;;;5.80;100.00
67434;BME280;54305;47.950;6.572;2023-04-20T02:08:47;93919.63;;;5.77;100.00
67434;BME280;54305;47.950;6.572;2023-04-20T02:11:13;93914.63;;;5.75;100.00
67434;BME280;54305;47.950;6.572;2023-04-20T02:13:38;93918.00;;;5.76;100.00
67434;BME280;54305;47.950;6.572;2023-04-20T02:16:03;93913.53;;;5.78;100.00
67434;BME280;54305;47.950;6.572;2023-04-20T02:18:29;93911.66;;;5.70;100.00
67434;BME280;54305;47.950;6.572;2023-04-20T02:20:56;93922.25;;;5.67;100.00
67434;BME280;54305;47.950;6.572;2023-04-20T02:23:22;93918.19;;;5.65;100.00
67434;BME280;54305;47.950;6.572;2023-04-20T02:25:47;93916.19;;;5.59;100.00
67434;BME280;54305;47.950;6.572;2023-04-20T02:28:12;93909.56;;;5.47;100.00
67434;BME280;54305;47.950;6.572;2023-04-20T02:30:38;93907.94;;;5.46;100.00
67434;BME280;54305;47.950;6.572;2023-04-20T02:33:03;93901.16;;;5.45;100.00
67434;BME280;54305;47.950;6.572;2023-04-20T02:35:28;93903.03;;;5.43;100.00
67434;BME280;54305;47.950;6.572;2023-04-20T02:37:53;93897.22;;;5.41;100.00
67434;BME280;54305;47.950;6.572;2023-04-20T02:40:19;93887.84;;;5.40;100.00
67434;BME280;54305;47.950;6.572;2023-04-20T02:42:44;93887.53;;;5.43;100.00
67434;BME280;54305;47.950;6.572;2023-04-20T02:45:10;93887.53;;;5.43;100.00
67434;BME280;54305;47.950;6.572;2023-04-20T02:47:35;93891.09;;;5.42;100.00
67434;BME280;54305;47.950;6.572;2023-04-20T02:50:00;93891.47;;;5.47;100.00
67434;BME280;54305;47.950;6.572;2023-04-20T02:52:26;93891.09;;;5.42;100.00
67434;BME280;54305;47.950;6.572;2023-04-20T02:54:51;93898.44;;;5.37;100.00
67434;BME280;54305;47.950;6.572;2023-04-20T02:57:16;93891.94;;;5.33;100.00
67434;BME280;54305;47.950;6.572;2023-04-20T02:59:42;93889.47;;;5.31;100.00
67434;BME280;54305;47.950;6.572;2023-04-20T03:02:07;93890.69;;;5.37;100.00
67434;BME280;54305;47.950;6.572;2023-04-20T03:04:32;93894.91;;;5.38;100.00
67434;BME280;54305;47.950;6.572;2023-04-20T03:06:58;93889.47;;;5.31;100.00
67434;BME280;54305;47.950;6.572;2023-04-20T03:09:24;93889.25;;;5.25;100.00
67434;BME280;54305;47.950;6.572;2023-04-20T03:11:49;93880.81;;;5.23;100.00
67434;BME280;54305;47.950;6.572;2023-04-20T03:14:15;93881.13;;;5.20;100.00
67434;BME280;54305;47.950;6.572;2023-04-20T03:16:40;93880.56;;;5.16;100.00
67434;BME280;54305;47.950;6.572;2023-04-20T03:19:06;93881.13;;;5.20;100.00
67434;BME280;54305;47.950;6.572;2023-04-20T03:21:31;93885.72;;;5.16;100.00
67434;BME280;54305;47.950;6.572;2023-04-20T03:23:57;93881.53;;;5.15;100.00
67434;BME280;54305;47.950;6.572;2023-04-20T03:26:22;93881.41;;;5.17;100.00
67434;BME280;54305;47.950;6.572;2023-04-20T03:28:48;93876.25;;;5.07;100.00
67434;BME280;54305;47.950;6.572;2023-04-20T03:31:14;93875.06;;;5.02;100.00
67434;BME280;54305;47.950;6.572;2023-04-20T03:33:42;93878.72;;;4.90;100.00
67434;BME280;54305;47.950;6.572;2023-04-20T03:36:08;93879.81;;;4.87;100.00
67434;BME280;54305;47.950;6.572;2023-04-20T03:38:33;93873.72;;;4.79;100.00
67434;BME280;54305;47.950;6.572;2023-04-20T03:40:58;93876.03;;;4.72;100.00
67434;BME280;54305;47.950;6.572;2023-04-20T03:43:24;93882.84;;;4.64;100.00
67434;BME280;54305;47.950;6.572;2023-04-20T03:45:49;93877.13;;;4.51;100.00
67434;BME280;54305;47.950;6.572;2023-04-20T03:48:15;93870.38;;;4.40;100.00
67434;BME280;54305;47.950;6.572;2023-04-20T03:50:40;93874.31;;;4.35;100.00
67434;BME280;54305;47.950;6.572;2023-04-20T03:53:05;93867.91;;;4.29;100.00
67434;BME280;54305;47.950;6.572;2023-04-20T03:55:30;93872.78;;;4.23;100.00
67434;BME280;54305;47.950;6.572;2023-04-20T03:57:56;93867.38;;;4.16;100.00
67434;BME280;54305;47.950;6.572;2023-04-20T04:00:21;93864.13;;;4.05;100.00
67434;BME280;54305;47.950;6.572;2023-04-20T04:02:46;93866.00;;;4.03;100.00
67434;BME280;54305;47.950;6.572;2023-04-20T04:05:11;93872.78;;;3.94;100.00
67434;BME280;54305;47.950;6.572;2023-04-20T04:07:37;93873.59;;;3.95;100.00
67434;BME280;54305;47.950;6.572;2023-04-20T04:10:02;93865.16;;;3.93;100.00
67434;BME280;54305;47.950;6.572;2023-04-20T04:12:29;93871.81;;;3.86;100.00
67434;BME280;54305;47.950;6.572;2023-04-20T04:14:55;93865.56;;;3.79;100.00
67434;BME280;54305;47.950;6.572;2023-04-20T04:17:20;93865.84;;;3.76;100.00
67434;BME280;54305;47.950;6.572;2023-04-20T04:19:45;93870.41;;;3.63;100.00
67434;BME280;54305;47.950;6.572;2023-04-20T04:22:11;93866.44;;;3.59;100.00
67434;BME280;54305;47.950;6.572;2023-04-20T04:24:36;93865.09;;;3.55;100.00
67434;BME280;54305;47.950;6.572;2023-04-20T04:27:02;93864.53;;;3.42;100.00
67434;BME280;54305;47.950;6.572;2023-04-20T04:29:29;93869.06;;;3.29;100.00
67434;BME280;54305;47.950;6.572;2023-04-20T04:31:54;93864.97;;;3.17;100.00
67434;BME280;54305;47.950;6.572;2023-04-20T04:34:20;93869.28;;;3.16;100.00
67434;BME280;54305;47.950;6.572;2023-04-20T04:36:45;93863.31;;;3.16;100.00
67434;BME280;54305;47.950;6.572;2023-04-20T04:39:10;93863.59;;;3.13;100.00
67434;BME280;54305;47.950;6.572;2023-04-20T04:41:36;93858.16;;;3.16;100.00
67434;BME280;54305;47.950;6.572;2023-04-20T04:44:02;93863.31;;;3.16;100.00
67434;BME280;54305;47.950;6.572;2023-04-20T04:46:27;93868.31;;;3.08;100.00
67434;BME280;54305;47.950;6.572;2023-04-20T04:48:52;93865.16;;;3.04;100.00
67434;BME280;54305;47.950;6.572;2023-04-20T04:51:18;93865.88;;;2.86;100.00
67434;BME280;54305;47.950;6.572;2023-04-20T04:53:43;93862.13;;;2.90;100.00
67434;BME280;54305;47.950;6.572;2023-04-20T04:56:10;93857.22;;;2.87;100.00
67434;BME280;54305;47.950;6.572;2023-04-20T04:58:37;93852.78;;;2.89;100.00
67434;BME280;54305;47.950;6.572;2023-04-20T05:01:02;93851.81;;;2.90;100.00
67434;BME280;54305;47.950;6.572;2023-04-20T05:03:27;93855.13;;;3.01;100.00
67434;BME280;54305;47.950;6.572;2023-04-20T05:05:53;93855.94;;;3.02;100.00
67434;BME280;54305;47.950;6.572;2023-04-20T05:08:19;93851.91;;;3.09;100.00
67434;BME280;54305;47.950;6.572;2023-04-20T05:10:45;93847.88;;;3.16;100.00
67434;BME280;54305;47.950;6.572;2023-04-20T05:13:10;93856.44;;;3.26;100.00
67434;BME280;54305;47.950;6.572;2023-04-20T05:15:36;93855.47;;;3.17;100.00
67434;BME280;54305;47.950;6.572;2023-04-20T05:18:01;93850.09;;;3.30;100.00
67434;BME280;54305;47.950;6.572;2023-04-20T05:20:26;93846.34;;;3.34;100.00
67434;BME280;54305;47.950;6.572;2023-04-20T05:22:52;93849.56;;;3.36;100.00
67434;BME280;54305;47.950;6.572;2023-04-20T05:25:17;93844.47;;;3.45;100.00
67434;BME280;54305;47.950;6.572;2023-04-20T05:27:42;93844.78;;;3.52;100.00
67434;BME280;54305;47.950;6.572;2023-04-20T05:30:08;93852.63;;;3.60;100.00
67434;BME280;54305;47.950;6.572;2023-04-20T05:32:33;93856.44;;;3.56;100.00
67434;BME280;54305;47.950;6.572;2023-04-20T05:34:58;93853.59;;;3.59;100.00
67434;BME280;54305;47.950;6.572;2023-04-20T05:37:24;93843.16;;;3.70;100.00
67434;BME280;54305;47.950;6.572;2023-04-20T05:39:50;93839.97;;;3.77;100.00
67434;BME280;54305;47.950;6.572;2023-04-20T05:42:15;93836.72;;;3.94;100.00
67434;BME280;54305;47.950;6.572;2023-04-20T05:44:42;93841.34;;;4.10;100.00
67434;BME280;54305;47.950;6.572;2023-04-20T05:47:08;93833.47;;;4.21;100.00
67434;BME280;54305;47.950;6.572;2023-04-20T05:49:34;93837.56;;;4.33;100.00
67434;BME280;54305;47.950;6.572;2023-04-20T05:51:59;93837.00;;;4.39;100.00
67434;BME280;54305;47.950;6.572;2023-04-20T05:54:25;93839.16;;;4.53;100.00
67434;BME280;54305;47.950;6.572;2023-04-20T05:56:52;93837.38;;;4.63;100.00
67434;BME280;54305;47.950;6.572;2023-04-20T05:59:17;93834.69;;;4.64;100.00
67434;BME280;54305;47.950;6.572;2023-04-20T06:01:43;93833.94;;;4.81;100.00
67434;BME280;54305;47.950;6.572;2023-04-20T06:04:08;93834.78;;;4.82;100.00
67434;BME280;54305;47.950;6.572;2023-04-20T06:06:33;93841.28;;;4.86;95.84
67434;BME280;54305;47.950;6.572;2023-04-20T06:08:59;93836.06;;;5.05;99.61
67434;BME280;54305;47.950;6.572;2023-04-20T06:11:24;93836.69;;;5.16;100.00
67434;BME280;54305;47.950;6.572;2023-04-20T06:13:49;93840.31;;;5.33;97.75
67434;BME280;54305;47.950;6.572;2023-04-20T06:16:15;93835.88;;;5.52;97.19
67434;BME280;54305;47.950;6.572;2023-04-20T06:18:40;93830.13;;;5.58;95.28
67434;BME280;54305;47.950;6.572;2023-04-20T06:21:07;93839.03;;;5.73;92.72
67434;BME280;54305;47.950;6.572;2023-04-20T06:23:33;93842.69;;;5.80;90.47
67434;BME280;54305;47.950;6.572;2023-04-20T06:25:58;93836.44;;;5.83;90.26
67434;BME280;54305;47.950;6.572;2023-04-20T06:28:23;93844.50;;;5.97;88.81
67434;BME280;54305;47.950;6.572;2023-04-20T06:30:48;93830.63;;;6.16;90.19
67434;BME280;54305;47.950;6.572;2023-04-20T06:33:14;93838.44;;;6.24;89.55
67434;BME280;54305;47.950;6.572;2023-04-20T06:35:41;93837.13;;;6.20;87.91
67434;BME280;54305;47.950;6.572;2023-04-20T06:38:07;93831.19;;;6.45;89.27
67434;BME280;54305;47.950;6.572;2023-04-20T06:40:32;93831.00;;;6.56;90.99
67434;BME280;54305;47.950;6.572;2023-04-20T06:42:57;93828.84;;;6.51;86.92
67434;BME280;54305;47.950;6.572;2023-04-20T06:45:23;93829.00;;;6.32;85.03
67434;BME280;54305;47.950;6.572;2023-04-20T06:47:48;93827.16;;;6.60;87.79
67434;BME280;54305;47.950;6.572;2023-04-20T06:50:13;93823.16;;;6.91;89.60
67434;BME280;54305;47.950;6.572;2023-04-20T06:52:39;93816.38;;;7.15;87.96
67434;BME280;54305;47.950;6.572;2023-04-20T06:55:04;93816.16;;;7.09;86.46
67434;BME280;54305;47.950;6.572;2023-04-20T06:57:30;93819.19;;;7.30;86.44
67434;BME280;54305;47.950;6.572;2023-04-20T06:59:55;93819.59;;;7.43;86.02
67434;BME280;54305;47.950;6.572;2023-04-20T07:02:22;93818.97;;;7.49;83.14
67434;BME280;54305;47.950;6.572;2023-04-20T07:04:48;93824.44;;;7.46;81.05
67434;BME280;54305;47.950;6.572;2023-04-20T07:07:13;93832.25;;;7.54;81.91
67434;BME280;54305;47.950;6.572;2023-04-20T07:09:38;93822.16;;;7.84;82.08
67434;BME280;54305;47.950;6.572;2023-04-20T07:12:04;93819.44;;;7.94;79.87
67434;BME280;54305;47.950;6.572;2023-04-20T07:14:29;93815.59;;;8.06;79.10
67434;BME280;54305;47.950;6.572;2023-04-20T07:16:54;93813.41;;;8.35;80.90
67434;BME280;54305;47.950;6.572;2023-04-20T07:19:20;93814.72;;;8.39;75.73
67434;BME280;54305;47.950;6.572;2023-04-20T07:21:45;93808.56;;;8.64;76.27
67434;BME280;54305;47.950;6.572;2023-04-20T07:24:11;93803.66;;;8.93;74.12
67434;BME280;54305;47.950;6.572;2023-04-20T07:26:36;93797.84;;;8.75;74.32
67434;BME280;54305;47.950;6.572;2023-04-20T07:29:01;93795.22;;;9.07;80.18
67434;BME280;54305;47.950;6.572;2023-04-20T07:31:27;93800.06;;;9.18;71.57
67434;BME280;54305;47.950;6.572;2023-04-20T07:33:52;93804.22;;;9.35;71.32
67434;BME280;54305;47.950;6.572;2023-04-20T07:36:18;93789.13;;;9.38;72.16
67434;BME280;54305;47.950;6.572;2023-04-20T07:38:44;93784.94;;;9.68;73.24
67434;BME280;54305;47.950;6.572;2023-04-20T07:41:09;93794.94;;;9.87;71.33
67434;BME280;54305;47.950;6.572;2023-04-20T07:43:37;93793.03;;;9.73;72.56
67434;BME280;54305;47.950;6.572;2023-04-20T07:46:03;93800.81;;;9.81;72.80
67434;BME280;54305;47.950;6.572;2023-04-20T07:48:28;93790.22;;;9.52;67.20
67434;BME280;54305;47.950;6.572;2023-04-20T07:50:54;93787.94;;;9.87;70.54
67434;BME280;54305;47.950;6.572;2023-04-20T07:53:21;93789.84;;;10.32;68.08
67434;BME280;54305;47.950;6.572;2023-04-20T07:55:46;93792.47;;;10.69;67.42
67434;BME280;54305;47.950;6.572;2023-04-20T07:58:12;93782.75;;;10.85;64.26
67434;BME280;54305;47.950;6.572;2023-04-20T08:00:38;93787.78;;;11.24;64.46
67434;BME280;54305;47.950;6.572;2023-04-20T08:03:03;93786.53;;;11.49;64.46
67434;BME280;54305;47.950;6.572;2023-04-20T08:05:29;93785.50;;;11.35;60.06
67434;BME280;54305;47.950;6.572;2023-04-20T08:07:54;93778.59;;;11.57;65.13
67434;BME280;54305;47.950;6.572;2023-04-20T08:10:20;93774.38;;;11.85;58.98
67434;BME280;54305;47.950;6.572;2023-04-20T08:12:45;93768.22;;;12.07;57.46
67434;BME280;54305;47.950;6.572;2023-04-20T08:15:11;93770.31;;;11.97;59.41
67434;BME280;54305;47.950;6.572;2023-04-20T08:17:36;93769.09;;;11.64;60.27
67434;BME280;54305;47.950;6.572;2023-04-20T08:20:01;93762.81;;;11.73;60.62
67434;BME280;54305;47.950;6.572;2023-04-20T08:22:29;93761.88;;;11.66;59.91
67434;BME280;54305;47.950;6.572;2023-04-20T08:24:58;93762.66;;;11.95;59.93
67434;BME280;54305;47.950;6.572;2023-04-20T08:27:23;93758.19;;;12.25;57.86
67434;BME280;54305;47.950;6.572;2023-04-20T08:29:48;93754.47;;;12.55;56.38
67434;BME280;54305;47.950;6.572;2023-04-20T08:32:14;93757.13;;;13.03;58.04
67434;BME280;54305;47.950;6.572;2023-04-20T08:34:39;93745.66;;;13.32;56.30
67434;BME280;54305;47.950;6.572;2023-04-20T08:37:05;93750.19;;;13.17;56.27
67434;BME280;54305;47.950;6.572;2023-04-20T08:39:30;93745.84;;;12.82;52.36
67434;BME280;54305;47.950;6.572;2023-04-20T08:42:43;93744.31;;;13.42;52.76
67434;BME280;54305;47.950;6.572;2023-04-20T08:45:08;93738.69;;;13.86;55.19
67434;BME280;54305;47.950;6.572;2023-04-20T08:47:34;93739.34;;;13.94;51.27
67434;BME280;54305;47.950;6.572;2023-04-20T08:49:59;93738.13;;;13.97;51.72
67434;BME280;54305;47.950;6.572;2023-04-20T08:52:27;93741.19;;;13.60;52.33
67434;BME280;54305;47.950;6.572;2023-04-20T08:54:53;93748.38;;;13.51;52.35
67434;BME280;54305;47.950;6.572;2023-04-20T08:57:18;93746.38;;;13.94;51.96
67434;BME280;54305;47.950;6.572;2023-04-20T08:59:43;93746.25;;;14.15;49.62
67434;BME280;54305;47.950;6.572;2023-04-20T09:02:09;93742.69;;;13.82;51.26
67434;BME280;54305;47.950;6.572;2023-04-20T09:04:35;93727.91;;;13.61;48.29
67434;BME280;54305;47.950;6.572;2023-04-20T09:07:00;93740.81;;;13.63;50.04
67434;BME280;54305;47.950;6.572;2023-04-20T09:09:26;93733.13;;;14.02;49.77
67434;BME280;54305;47.950;6.572;2023-04-20T09:12:25;93733.34;;;13.26;50.32
67434;BME280;54305;47.950;6.572;2023-04-20T09:14:44;93735.13;;;12.49;50.70
67434;BME280;54305;47.950;6.572;2023-04-20T09:17:09;93740.47;;;12.20;52.54
67434;BME280;54305;47.950;6.572;2023-04-20T09:19:38;93730.66;;;12.92;52.10
67434;BME280;54305;47.950;6.572;2023-04-20T09:22:03;93726.34;;;12.57;52.28
67434;BME280;54305;47.950;6.572;2023-04-20T09:24:34;93730.41;;;11.53;52.61
67434;BME280;54305;47.950;6.572;2023-04-20T09:27:02;93736.53;;;11.31;53.98
67434;BME280;54305;47.950;6.572;2023-04-20T09:29:27;93739.75;;;11.33;57.05
67434;BME280;54305;47.950;6.572;2023-04-20T09:31:54;93743.59;;;10.93;54.56
67434;BME280;54305;47.950;6.572;2023-04-20T09:34:19;93740.19;;;10.93;55.59
67434;BME280;54305;47.950;6.572;2023-04-20T09:36:46;93729.66;;;10.72;57.42
67434;BME280;54305;47.950;6.572;2023-04-20T09:39:16;93740.13;;;10.27;54.62
67434;BME280;54305;47.950;6.572;2023-04-20T09:41:43;93743.97;;;10.31;56.95
67434;BME280;54305;47.950;6.572;2023-04-20T09:44:11;93736.94;;;10.39;57.49
67434;BME280;54305;47.950;6.572;2023-04-20T09:46:38;93732.47;;;10.48;53.65
67434;BME280;54305;47.950;6.572;2023-04-20T09:49:04;93735.41;;;10.45;57.48
67434;BME280;54305;47.950;6.572;2023-04-20T09:51:30;93737.41;;;10.57;56.32
67434;BME280;54305;47.950;6.572;2023-04-20T09:53:56;93727.56;;;10.67;55.79
67434;BME280;54305;47.950;6.572;2023-04-20T09:56:22;93726.94;;;10.80;55.25
67434;BME280;54305;47.950;6.572;2023-04-20T09:58:48;93727.88;;;10.87;54.19
67434;BME280;54305;47.950;6.572;2023-04-20T10:01:13;93729.16;;;10.91;52.77
67434;BME280;54305;47.950;6.572;2023-04-20T10:03:42;93732.38;;;10.93;54.90
67434;BME280;54305;47.950;6.572;2023-04-20T10:06:20;93727.97;;;10.93;51.51
67434;BME280;54305;47.950;6.572;2023-04-20T10:08:45;93727.66;;;10.74;52.68
67434;BME280;54305;47.950;6.572;2023-04-20T10:11:22;93723.16;;;10.68;52.69
67434;BME280;54305;47.950;6.572;2023-04-20T10:13:48;93716.25;;;10.75;54.29
67434;BME280;54305;47.950;6.572;2023-04-20T10:16:16;93708.97;;;10.56;51.76
67434;BME280;54305;47.950;6.572;2023-04-20T10:18:53;93716.53;;;10.80;51.57
67434;BME280;54305;47.950;6.572;2023-04-20T10:21:19;93715.13;;;10.55;53.25
67434;BME280;54305;47.950;6.572;2023-04-20T10:23:46;93709.81;;;10.71;54.86
67434;BME280;54305;47.950;6.572;2023-04-20T10:26:12;93709.91;;;10.92;52.45
67434;BME280;54305;47.950;6.572;2023-04-20T10:28:37;93704.00;;;11.27;52.95
67434;BME280;54305;47.950;6.572;2023-04-20T10:31:04;93706.03;;;11.46;51.30
67434;BME280;54305;47.950;6.572;2023-04-20T10:33:31;93702.00;;;11.58;50.38
67434;BME280;54305;47.950;6.572;2023-04-20T10:35:56;93700.31;;;11.86;53.98
67434;BME280;54305;47.950;6.572;2023-04-20T10:38:41;93705.03;;;11.47;49.67
67434;BME280;54305;47.950;6.572;2023-04-20T10:43:31;93695.09;;;11.86;51.41
67434;BME280;54305;47.950;6.572;2023-04-20T10:45:59;93699.91;;;11.82;50.69
67434;BME280;54305;47.950;6.572;2023-04-20T10:48:27;93697.13;;;11.55;49.91
67434;BME280;54305;47.950;6.572;2023-04-20T10:50:53;93701.81;;;11.45;51.31
67434;BME280;54305;47.950;6.572;2023-04-20T10:53:21;93695.69;;;11.38;49.14
67434;BME280;54305;47.950;6.572;2023-04-20T10:55:56;93689.25;;;11.34;49.47
67434;BME280;54305;47.950;6.572;2023-04-20T10:58:22;93686.28;;;11.37;50.84
67434;BME280;54305;47.950;6.572;2023-04-20T11:00:58;93696.44;;;11.32;53.33
67434;BME280;54305;47.950;6.572;2023-04-20T11:03:26;93687.47;;;11.05;49.74
67434;BME280;54305;47.950;6.572;2023-04-20T11:05:51;93676.22;;;10.76;49.88
67434;BME280;54305;47.950;6.572;2023-04-20T11:08:16;93683.88;;;10.92;50.41
67434;BME280;54305;47.950;6.572;2023-04-20T11:10:42;93675.44;;;10.90;51.78
67434;BME280;54305;47.950;6.572;2023-04-20T11:13:19;93671.84;;;10.91;51.18
67434;BME280;54305;47.950;6.572;2023-04-20T11:15:46;93669.22;;;11.05;49.57
67434;BME280;54305;47.950;6.572;2023-04-20T11:18:11;93670.38;;;11.03;49.11
67434;BME280;54305;47.950;6.572;2023-04-20T11:20:37;93669.38;;;11.04;51.70
67434;BME280;54305;47.950;6.572;2023-04-20T11:23:13;93669.06;;;10.92;48.51
67434;BME280;54305;47.950;6.572;2023-04-20T11:25:47;93670.81;;;10.77;49.44
67434;BME280;54305;47.950;6.572;2023-04-20T11:28:12;93665.16;;;10.74;50.74
67434;BME280;54305;47.950;6.572;2023-04-20T11:30:38;93665.06;;;10.53;51.23
67434;BME280;54305;47.950;6.572;2023-04-20T11:33:05;93662.09;;;10.56;52.83
67434;BME280;54305;47.950;6.572;2023-04-20T11:35:34;93658.06;;;10.68;50.22
67434;BME280;54305;47.950;6.572;2023-04-20T11:38:00;93661.63;;;10.52;48.94
67434;BME280;54305;47.950;6.572;2023-04-20T11:40:26;93656.53;;;10.44;48.26
67434;BME280;54305;47.950;6.572;2023-04-20T11:42:51;93650.34;;;10.60;51.65
67434;BME280;54305;47.950;6.572;2023-04-20T11:45:16;93651.63;;;10.78;51.80
67434;BME280;54305;47.950;6.572;2023-04-20T11:47:42;93657.19;;;10.75;52.62
67434;BME280;54305;47.950;6.572;2023-04-20T11:53:10;93658.69;;;11.28;51.38
67434;BME280;54305;47.950;6.572;2023-04-20T11:55:39;93661.38;;;11.49;50.91
67434;BME280;54305;47.950;6.572;2023-04-20T11:58:04;93660.44;;;11.71;49.48
67434;BME280;54305;47.950;6.572;2023-04-20T12:00:30;93658.91;;;11.97;49.42
67434;BME280;54305;47.950;6.572;2023-04-20T12:02:55;93652.59;;;12.27;50.00
67434;BME280;54305;47.950;6.572;2023-04-20T12:05:21;93652.25;;;12.92;50.55
67434;BME280;54305;47.950;6.572;2023-04-20T12:07:46;93651.72;;;13.30;47.21
67434;BME280;54305;47.950;6.572;2023-04-20T12:10:11;93649.72;;;13.39;48.42
67434;BME280;54305;47.950;6.572;2023-04-20T12:12:37;93648.84;;;13.19;49.04
67434;BME280;54305;47.950;6.572;2023-04-20T12:15:02;93644.66;;;13.31;44.52
67434;BME280;54305;47.950;6.572;2023-04-20T12:17:28;93646.13;;;12.78;44.55
67434;BME280;54305;47.950;6.572;2023-04-20T12:19:53;93645.50;;;12.70;48.08
67434;BME280;54305;47.950;6.572;2023-04-20T12:22:18;93645.63;;;13.17;48.03
67434;BME280;54305;47.950;6.572;2023-04-20T12:24:44;93646.09;;;13.40;46.96
67434;BME280;54305;47.950;6.572;2023-04-20T12:27:09;93648.22;;;13.64;43.90
67434;BME280;54305;47.950;6.572;2023-04-20T12:29:35;93641.31;;;14.10;45.94
67434;BME280;54305;47.950;6.572;2023-04-20T12:32:00;93643.91;;;14.03;44.44
67434;BME280;54305;47.950;6.572;2023-04-20T12:34:25;93639.13;;;14.20;43.32
67434;BME280;54305;47.950;6.572;2023-04-20T12:36:51;93638.28;;;14.00;43.71
67434;BME280;54305;47.950;6.572;2023-04-20T12:39:16;93634.13;;;13.65;42.75
67434;BME280;54305;47.950;6.572;2023-04-20T12:41:41;93636.78;;;12.63;41.68
67434;BME280;54305;47.950;6.572;2023-04-20T12:44:09;93634.97;;;12.91;43.09
67434;BME280;54305;47.950;6.572;2023-04-20T12:46:37;93631.56;;;13.24;42.91
67434;BME280;54305;47.950;6.572;2023-04-20T12:49:02;93634.81;;;13.33;41.83
67434;BME280;54305;47.950;6.572;2023-04-20T12:51:27;93631.28;;;13.06;42.54
67434;BME280;54305;47.950;6.572;2023-04-20T12:53:53;93627.09;;;13.18;44.55
67434;BME280;54305;47.950;6.572;2023-04-20T12:56:19;93634.53;;;12.87;44.30
67434;BME280;54305;47.950;6.572;2023-04-20T12:58:44;93624.88;;;12.81;41.83
67434;BME280;54305;47.950;6.572;2023-04-20T13:01:10;93626.91;;;12.86;42.56